sim
Sign-in with your pilot id or email,
or register
Callsign
Passwort

Schedule Details

Flight Number: DLH1835 (1)
Departure: Malaga Costa Del Sol Airport (LEMG) at 14:55
Arrival: Munich Airport (EDDM) at 17:50
Route: Lufthansa Passenger Schedule. Enter filed route here before submitting Pirep.

Weather Information
Getting current METAR information for LEMG 010200Z 30005KT CAVOK 18/15 Q1013 NOSIG
Getting current METAR information for EDDM 010220Z 00000KT 0800 R08L/0350N R08R/0700N FG NSC 04/03 Q1010 BECMG 0500 BKN001

Schedule Frequency

Route Map